sensor_id;sensor_type;location;lat;lon;timestamp;pressure;altitude;pressure_sealevel;temperature;humidity
48156;BME280;35568;48.104;11.782;2023-05-03T00:01:37;96057.14;;;7.09;55.05
48156;BME280;35568;48.104;11.782;2023-05-03T00:04:04;96052.81;;;7.51;55.05
48156;BME280;35568;48.104;11.782;2023-05-03T00:06:31;96057.16;;;7.35;54.89
48156;BME280;35568;48.104;11.782;2023-05-03T00:08:58;96059.33;;;7.21;55.31
48156;BME280;35568;48.104;11.782;2023-05-03T00:11:25;96061.18;;;6.98;55.48
48156;BME280;35568;48.104;11.782;2023-05-03T00:13:52;96059.85;;;7.33;55.37
48156;BME280;35568;48.104;11.782;2023-05-03T00:16:18;96061.45;;;7.00;55.31
48156;BME280;35568;48.104;11.782;2023-05-03T00:18:45;96058.90;;;6.94;55.82
48156;BME280;35568;48.104;11.782;2023-05-03T00:21:12;96062.37;;;6.81;56.27
48156;BME280;35568;48.104;11.782;2023-05-03T00:23:39;96060.65;;;6.96;56.10
48156;BME280;35568;48.104;11.782;2023-05-03T00:26:06;96059.42;;;6.77;56.13
48156;BME280;35568;48.104;11.782;2023-05-03T00:28:33;96058.24;;;6.77;56.12
48156;BME280;35568;48.104;11.782;2023-05-03T00:31:05;96058.99;;;6.64;56.08
48156;BME280;35568;48.104;11.782;2023-05-03T00:33:32;96059.92;;;6.86;55.65
48156;BME280;35568;48.104;11.782;2023-05-03T00:36:06;96057.63;;;7.01;55.86
48156;BME280;35568;48.104;11.782;2023-05-03T00:38:33;96055.88;;;6.80;55.55
48156;BME280;35568;48.104;11.782;2023-05-03T00:41:00;96052.87;;;6.60;55.84
48156;BME280;35568;48.104;11.782;2023-05-03T00:43:26;96051.62;;;6.51;56.41
48156;BME280;35568;48.104;11.782;2023-05-03T00:45:53;96048.49;;;6.36;56.91
48156;BME280;35568;48.104;11.782;2023-05-03T00:48:20;96047.24;;;6.38;56.83
48156;BME280;35568;48.104;11.782;2023-05-03T00:50:48;96047.53;;;6.38;56.73
48156;BME280;35568;48.104;11.782;2023-05-03T00:53:15;96047.08;;;6.14;56.31
48156;BME280;35568;48.104;11.782;2023-05-03T00:55:43;96046.85;;;6.52;55.83
48156;BME280;35568;48.104;11.782;2023-05-03T00:58:11;96050.04;;;6.75;55.68
48156;BME280;35568;48.104;11.782;2023-05-03T01:00:38;96048.04;;;6.68;55.78
48156;BME280;35568;48.104;11.782;2023-05-03T01:03:05;96047.72;;;6.66;56.00
48156;BME280;35568;48.104;11.782;2023-05-03T01:05:39;96047.45;;;6.80;56.11
48156;BME280;35568;48.104;11.782;2023-05-03T01:08:14;96050.15;;;6.78;55.80
48156;BME280;35568;48.104;11.782;2023-05-03T01:10:49;96052.33;;;6.96;55.58
48156;BME280;35568;48.104;11.782;2023-05-03T01:13:23;96052.08;;;6.90;55.65
48156;BME280;35568;48.104;11.782;2023-05-03T01:15:59;96051.80;;;6.88;56.02
48156;BME280;35568;48.104;11.782;2023-05-03T01:18:36;96050.36;;;7.42;55.64
48156;BME280;35568;48.104;11.782;2023-05-03T01:21:04;96049.08;;;7.19;56.09
48156;BME280;35568;48.104;11.782;2023-05-03T01:26:20;96043.38;;;7.63;55.98
48156;BME280;35568;48.104;11.782;2023-05-03T01:28:48;96045.09;;;7.77;55.51
48156;BME280;35568;48.104;11.782;2023-05-03T01:31:20;96044.50;;;7.65;55.56
48156;BME280;35568;48.104;11.782;2023-05-03T01:33:57;96040.85;;;7.59;55.61
48156;BME280;35568;48.104;11.782;2023-05-03T01:36:29;96041.55;;;7.44;56.03
48156;BME280;35568;48.104;11.782;2023-05-03T01:38:56;96039.76;;;7.30;56.16
48156;BME280;35568;48.104;11.782;2023-05-03T01:41:25;96037.11;;;7.79;55.79
48156;BME280;35568;48.104;11.782;2023-05-03T01:43:54;96035.67;;;7.35;56.27
48156;BME280;35568;48.104;11.782;2023-05-03T01:46:22;96034.05;;;7.74;56.02
48156;BME280;35568;48.104;11.782;2023-05-03T01:48:49;96031.28;;;7.55;56.22
48156;BME280;35568;48.104;11.782;2023-05-03T01:51:15;96034.62;;;7.73;56.26
48156;BME280;35568;48.104;11.782;2023-05-03T01:53:42;96031.98;;;7.59;56.03
48156;BME280;35568;48.104;11.782;2023-05-03T01:56:09;96035.30;;;7.70;56.31
48156;BME280;35568;48.104;11.782;2023-05-03T01:58:36;96037.53;;;7.68;56.10
48156;BME280;35568;48.104;11.782;2023-05-03T02:01:03;96038.17;;;8.01;56.12
48156;BME280;35568;48.104;11.782;2023-05-03T02:03:30;96035.94;;;7.99;55.81
48156;BME280;35568;48.104;11.782;2023-05-03T02:05:57;96038.01;;;7.70;55.98
48156;BME280;35568;48.104;11.782;2023-05-03T02:08:24;96037.81;;;7.79;56.08
48156;BME280;35568;48.104;11.782;2023-05-03T02:10:51;96035.29;;;7.90;55.91
48156;BME280;35568;48.104;11.782;2023-05-03T02:13:18;96040.27;;;7.95;56.05
48156;BME280;35568;48.104;11.782;2023-05-03T02:15:45;96044.73;;;7.93;55.81
48156;BME280;35568;48.104;11.782;2023-05-03T02:18:11;96047.90;;;7.90;55.85
48156;BME280;35568;48.104;11.782;2023-05-03T02:20:38;96045.03;;;8.30;55.59
48156;BME280;35568;48.104;11.782;2023-05-03T02:23:05;96048.12;;;7.70;55.70
48156;BME280;35568;48.104;11.782;2023-05-03T02:25:32;96045.11;;;7.86;56.21
48156;BME280;35568;48.104;11.782;2023-05-03T02:27:59;96045.46;;;7.91;56.21
48156;BME280;35568;48.104;11.782;2023-05-03T02:30:26;96043.40;;;7.68;56.50
48156;BME280;35568;48.104;11.782;2023-05-03T02:32:52;96043.92;;;7.85;56.53
48156;BME280;35568;48.104;11.782;2023-05-03T02:35:19;96042.62;;;7.98;56.30
48156;BME280;35568;48.104;11.782;2023-05-03T02:37:46;96044.58;;;7.76;56.08
48156;BME280;35568;48.104;11.782;2023-05-03T02:40:13;96041.89;;;7.83;56.35
48156;BME280;35568;48.104;11.782;2023-05-03T02:42:39;96044.65;;;7.83;56.11
48156;BME280;35568;48.104;11.782;2023-05-03T02:45:07;96044.82;;;7.65;56.45
48156;BME280;35568;48.104;11.782;2023-05-03T02:47:34;96041.37;;;7.56;56.60
48156;BME280;35568;48.104;11.782;2023-05-03T02:50:01;96037.03;;;7.50;56.73
48156;BME280;35568;48.104;11.782;2023-05-03T02:52:27;96040.60;;;7.30;57.09
48156;BME280;35568;48.104;11.782;2023-05-03T02:54:54;96041.79;;;7.25;57.11
48156;BME280;35568;48.104;11.782;2023-05-03T02:57:21;96043.97;;;7.08;57.13
48156;BME280;35568;48.104;11.782;2023-05-03T02:59:48;96045.62;;;7.15;56.95
48156;BME280;35568;48.104;11.782;2023-05-03T03:03:01;96046.53;;;6.92;56.92
48156;BME280;35568;48.104;11.782;2023-05-03T03:05:28;96048.06;;;7.04;56.65
48156;BME280;35568;48.104;11.782;2023-05-03T03:07:55;96049.32;;;7.02;56.78
48156;BME280;35568;48.104;11.782;2023-05-03T03:10:21;96049.07;;;7.26;56.75
48156;BME280;35568;48.104;11.782;2023-05-03T03:12:48;96046.16;;;7.02;56.68
48156;BME280;35568;48.104;11.782;2023-05-03T03:15:15;96047.31;;;7.05;56.97
48156;BME280;35568;48.104;11.782;2023-05-03T03:17:42;96049.94;;;7.52;56.89
48156;BME280;35568;48.104;11.782;2023-05-03T03:20:09;96051.76;;;7.31;56.78
48156;BME280;35568;48.104;11.782;2023-05-03T03:22:37;96046.35;;;7.58;56.52
48156;BME280;35568;48.104;11.782;2023-05-03T03:25:04;96049.21;;;7.37;56.44
48156;BME280;35568;48.104;11.782;2023-05-03T03:27:31;96052.82;;;7.57;56.14
48156;BME280;35568;48.104;11.782;2023-05-03T03:29:58;96052.32;;;7.59;56.30
48156;BME280;35568;48.104;11.782;2023-05-03T03:32:25;96053.48;;;7.51;56.09
48156;BME280;35568;48.104;11.782;2023-05-03T03:34:52;96051.36;;;7.20;56.47
48156;BME280;35568;48.104;11.782;2023-05-03T03:37:18;96050.36;;;7.16;56.58
48156;BME280;35568;48.104;11.782;2023-05-03T03:39:45;96047.60;;;7.37;56.42
48156;BME280;35568;48.104;11.782;2023-05-03T03:42:13;96047.23;;;7.45;56.51
48156;BME280;35568;48.104;11.782;2023-05-03T03:44:40;96044.08;;;7.19;56.49
48156;BME280;35568;48.104;11.782;2023-05-03T03:47:07;96044.48;;;7.37;56.60
48156;BME280;35568;48.104;11.782;2023-05-03T03:49:34;96047.42;;;7.34;56.94
48156;BME280;35568;48.104;11.782;2023-05-03T03:52:02;96050.64;;;7.60;57.15
48156;BME280;35568;48.104;11.782;2023-05-03T03:54:28;96052.51;;;7.17;57.32
48156;BME280;35568;48.104;11.782;2023-05-03T03:56:55;96050.89;;;7.47;56.92
48156;BME280;35568;48.104;11.782;2023-05-03T03:59:22;96055.99;;;7.36;57.05
48156;BME280;35568;48.104;11.782;2023-05-03T04:01:49;96052.31;;;7.30;56.84
48156;BME280;35568;48.104;11.782;2023-05-03T04:04:15;96052.44;;;7.83;56.45
48156;BME280;35568;48.104;11.782;2023-05-03T04:06:43;96054.05;;;7.85;56.33
48156;BME280;35568;48.104;11.782;2023-05-03T04:09:09;96056.06;;;7.73;56.09
48156;BME280;35568;48.104;11.782;2023-05-03T04:11:37;96053.84;;;7.75;56.32
48156;BME280;35568;48.104;11.782;2023-05-03T04:14:04;96055.87;;;7.73;56.48
48156;BME280;35568;48.104;11.782;2023-05-03T04:16:30;96055.55;;;7.98;56.11
48156;BME280;35568;48.104;11.782;2023-05-03T04:18:57;96056.58;;;7.79;56.37
48156;BME280;35568;48.104;11.782;2023-05-03T04:21:24;96057.56;;;7.94;56.12
48156;BME280;35568;48.104;11.782;2023-05-03T04:23:51;96057.62;;;8.17;56.15
48156;BME280;35568;48.104;11.782;2023-05-03T04:26:18;96058.14;;;7.93;56.22
48156;BME280;35568;48.104;11.782;2023-05-03T04:28:45;96059.26;;;7.82;56.28
48156;BME280;35568;48.104;11.782;2023-05-03T04:31:12;96064.62;;;7.69;56.30
48156;BME280;35568;48.104;11.782;2023-05-03T04:33:39;96065.42;;;7.94;56.62
48156;BME280;35568;48.104;11.782;2023-05-03T04:36:08;96066.44;;;8.11;56.68
48156;BME280;35568;48.104;11.782;2023-05-03T04:38:35;96066.59;;;8.19;56.03
48156;BME280;35568;48.104;11.782;2023-05-03T04:41:02;96070.16;;;7.98;56.34
48156;BME280;35568;48.104;11.782;2023-05-03T04:43:28;96070.16;;;8.29;55.74
48156;BME280;35568;48.104;11.782;2023-05-03T04:45:55;96073.14;;;8.27;55.95
48156;BME280;35568;48.104;11.782;2023-05-03T04:48:22;96072.28;;;8.36;55.66
48156;BME280;35568;48.104;11.782;2023-05-03T04:50:49;96073.93;;;8.32;55.96
48156;BME280;35568;48.104;11.782;2023-05-03T04:53:16;96077.00;;;8.48;55.99
48156;BME280;35568;48.104;11.782;2023-05-03T04:55:42;96077.05;;;8.49;55.70
48156;BME280;35568;48.104;11.782;2023-05-03T04:58:09;96078.87;;;8.68;55.69
48156;BME280;35568;48.104;11.782;2023-05-03T05:00:36;96078.93;;;8.32;56.09
48156;BME280;35568;48.104;11.782;2023-05-03T05:03:03;96083.11;;;8.39;56.05
48156;BME280;35568;48.104;11.782;2023-05-03T05:05:30;96088.02;;;8.43;56.15
48156;BME280;35568;48.104;11.782;2023-05-03T05:07:57;96089.01;;;8.36;56.04
48156;BME280;35568;48.104;11.782;2023-05-03T05:10:24;96090.44;;;8.36;55.85
48156;BME280;35568;48.104;11.782;2023-05-03T05:12:51;96089.28;;;8.29;56.28
48156;BME280;35568;48.104;11.782;2023-05-03T05:15:19;96091.46;;;8.76;55.84
48156;BME280;35568;48.104;11.782;2023-05-03T05:17:46;96089.19;;;8.89;55.92
48156;BME280;35568;48.104;11.782;2023-05-03T05:20:12;96087.77;;;9.22;55.46
48156;BME280;35568;48.104;11.782;2023-05-03T05:22:39;96090.85;;;9.16;55.20
48156;BME280;35568;48.104;11.782;2023-05-03T05:25:07;96093.87;;;9.41;55.21
48156;BME280;35568;48.104;11.782;2023-05-03T05:27:34;96099.09;;;9.74;54.01
48156;BME280;35568;48.104;11.782;2023-05-03T05:30:01;96104.56;;;9.80;54.07
48156;BME280;35568;48.104;11.782;2023-05-03T05:32:28;96104.56;;;9.61;54.58
48156;BME280;35568;48.104;11.782;2023-05-03T05:34:54;96106.32;;;9.89;54.60
48156;BME280;35568;48.104;11.782;2023-05-03T05:37:21;96108.05;;;9.80;54.80
48156;BME280;35568;48.104;11.782;2023-05-03T05:39:48;96108.26;;;9.95;54.97
48156;BME280;35568;48.104;11.782;2023-05-03T05:42:16;96112.72;;;8.89;54.73
48156;BME280;35568;48.104;11.782;2023-05-03T05:44:43;96112.28;;;9.70;54.01
48156;BME280;35568;48.104;11.782;2023-05-03T05:47:10;96113.68;;;10.18;54.57
48156;BME280;35568;48.104;11.782;2023-05-03T05:49:36;96113.29;;;10.26;54.22
48156;BME280;35568;48.104;11.782;2023-05-03T05:52:03;96110.55;;;10.20;54.16
48156;BME280;35568;48.104;11.782;2023-05-03T05:54:30;96112.01;;;10.34;54.16
48156;BME280;35568;48.104;11.782;2023-05-03T05:56:57;96111.18;;;10.87;53.85
48156;BME280;35568;48.104;11.782;2023-05-03T05:59:23;96107.42;;;10.65;53.59
48156;BME280;35568;48.104;11.782;2023-05-03T06:01:50;96111.98;;;10.79;53.46
48156;BME280;35568;48.104;11.782;2023-05-03T06:04:17;96116.21;;;11.08;53.32
48156;BME280;35568;48.104;11.782;2023-05-03T06:06:44;96117.51;;;11.15;53.13
48156;BME280;35568;48.104;11.782;2023-05-03T06:09:11;96120.64;;;10.98;52.87
48156;BME280;35568;48.104;11.782;2023-05-03T06:11:38;96120.78;;;10.93;53.64
48156;BME280;35568;48.104;11.782;2023-05-03T06:14:05;96125.95;;;10.80;53.84
48156;BME280;35568;48.104;11.782;2023-05-03T06:16:32;96126.12;;;10.51;54.16
48156;BME280;35568;48.104;11.782;2023-05-03T06:18:59;96126.93;;;10.77;53.85
48156;BME280;35568;48.104;11.782;2023-05-03T06:21:26;96129.16;;;10.92;53.61
48156;BME280;35568;48.104;11.782;2023-05-03T06:23:53;96128.04;;;10.93;53.86
48156;BME280;35568;48.104;11.782;2023-05-03T06:26:19;96129.72;;;10.76;53.65
48156;BME280;35568;48.104;11.782;2023-05-03T06:28:46;96131.32;;;10.74;53.56
48156;BME280;35568;48.104;11.782;2023-05-03T06:31:13;96133.25;;;10.83;53.62
48156;BME280;35568;48.104;11.782;2023-05-03T06:33:39;96136.25;;;10.45;54.24
48156;BME280;35568;48.104;11.782;2023-05-03T06:36:07;96137.45;;;10.35;55.10
48156;BME280;35568;48.104;11.782;2023-05-03T06:38:33;96138.00;;;10.51;55.70
48156;BME280;35568;48.104;11.782;2023-05-03T06:41:01;96138.39;;;10.75;55.20
48156;BME280;35568;48.104;11.782;2023-05-03T06:43:28;96138.27;;;10.79;54.99
48156;BME280;35568;48.104;11.782;2023-05-03T06:45:54;96139.35;;;10.72;54.60
48156;BME280;35568;48.104;11.782;2023-05-03T06:48:21;96142.29;;;10.54;55.08
48156;BME280;35568;48.104;11.782;2023-05-03T06:50:48;96143.17;;;10.46;55.81
48156;BME280;35568;48.104;11.782;2023-05-03T06:53:14;96142.30;;;10.20;55.83
48156;BME280;35568;48.104;11.782;2023-05-03T06:55:42;96142.40;;;10.59;55.71
48156;BME280;35568;48.104;11.782;2023-05-03T06:58:09;96142.31;;;10.59;55.33
48156;BME280;35568;48.104;11.782;2023-05-03T07:00:36;96143.39;;;10.65;54.94
48156;BME280;35568;48.104;11.782;2023-05-03T07:03:04;96144.88;;;10.48;55.06
48156;BME280;35568;48.104;11.782;2023-05-03T07:05:31;96143.27;;;11.12;54.16
48156;BME280;35568;48.104;11.782;2023-05-03T07:07:58;96143.44;;;11.00;54.46
48156;BME280;35568;48.104;11.782;2023-05-03T07:10:25;96145.06;;;11.24;54.29
48156;BME280;35568;48.104;11.782;2023-05-03T07:12:52;96146.93;;;11.16;54.24
48156;BME280;35568;48.104;11.782;2023-05-03T07:15:19;96146.01;;;11.34;53.53
48156;BME280;35568;48.104;11.782;2023-05-03T07:17:46;96143.60;;;11.29;53.13
48156;BME280;35568;48.104;11.782;2023-05-03T07:20:13;96136.95;;;10.71;54.14
48156;BME280;35568;48.104;11.782;2023-05-03T07:22:40;96141.19;;;11.00;54.44
48156;BME280;35568;48.104;11.782;2023-05-03T07:25:08;96141.00;;;11.56;53.55
48156;BME280;35568;48.104;11.782;2023-05-03T07:27:35;96138.99;;;11.80;53.04
48156;BME280;35568;48.104;11.782;2023-05-03T07:30:02;96138.35;;;11.64;52.86
48156;BME280;35568;48.104;11.782;2023-05-03T07:32:29;96138.40;;;11.68;52.68
48156;BME280;35568;48.104;11.782;2023-05-03T07:34:56;96140.76;;;11.85;52.37
48156;BME280;35568;48.104;11.782;2023-05-03T07:37:23;96140.64;;;12.22;51.63
48156;BME280;35568;48.104;11.782;2023-05-03T07:39:49;96139.23;;;12.19;51.19
48156;BME280;35568;48.104;11.782;2023-05-03T07:42:16;96142.60;;;12.64;50.15
48156;BME280;35568;48.104;11.782;2023-05-03T07:44:43;96142.21;;;12.83;48.96
48156;BME280;35568;48.104;11.782;2023-05-03T07:47:11;96140.63;;;13.17;48.96
48156;BME280;35568;48.104;11.782;2023-05-03T07:49:38;96142.05;;;12.98;49.45
48156;BME280;35568;48.104;11.782;2023-05-03T07:52:05;96136.88;;;13.30;48.62
48156;BME280;35568;48.104;11.782;2023-05-03T07:54:32;96135.70;;;13.56;48.63
48156;BME280;35568;48.104;11.782;2023-05-03T07:56:59;96135.31;;;13.34;47.70
48156;BME280;35568;48.104;11.782;2023-05-03T07:59:26;96135.09;;;13.35;48.18
48156;BME280;35568;48.104;11.782;2023-05-03T08:01:53;96136.26;;;12.98;48.45
48156;BME280;35568;48.104;11.782;2023-05-03T08:04:19;96135.09;;;13.29;48.33
48156;BME280;35568;48.104;11.782;2023-05-03T08:06:47;96131.94;;;13.49;47.78
48156;BME280;35568;48.104;11.782;2023-05-03T08:09:13;96128.80;;;13.35;47.78
48156;BME280;35568;48.104;11.782;2023-05-03T08:11:40;96127.38;;;13.86;47.94
48156;BME280;35568;48.104;11.782;2023-05-03T08:14:07;96130.01;;;13.83;46.92
48156;BME280;35568;48.104;11.782;2023-05-03T08:16:34;96132.81;;;13.94;47.37
48156;BME280;35568;48.104;11.782;2023-05-03T08:19:02;96128.77;;;13.48;47.95
48156;BME280;35568;48.104;11.782;2023-05-03T08:21:29;96130.37;;;13.68;48.23
48156;BME280;35568;48.104;11.782;2023-05-03T08:23:56;96130.59;;;13.69;48.52
48156;BME280;35568;48.104;11.782;2023-05-03T08:26:22;96134.27;;;13.94;48.59
48156;BME280;35568;48.104;11.782;2023-05-03T08:28:49;96137.63;;;13.84;47.43
48156;BME280;35568;48.104;11.782;2023-05-03T08:31:16;96138.12;;;13.73;47.57
48156;BME280;35568;48.104;11.782;2023-05-03T08:33:43;96135.84;;;13.44;47.74
48156;BME280;35568;48.104;11.782;2023-05-03T08:36:10;96138.62;;;13.60;47.67
48156;BME280;35568;48.104;11.782;2023-05-03T08:38:37;96136.19;;;13.96;47.79
48156;BME280;35568;48.104;11.782;2023-05-03T08:41:13;96135.81;;;13.72;47.52
48156;BME280;35568;48.104;11.782;2023-05-03T08:43:43;96132.92;;;13.93;47.49
48156;BME280;35568;48.104;11.782;2023-05-03T08:46:11;96130.86;;;14.01;47.11
48156;BME280;35568;48.104;11.782;2023-05-03T08:48:38;96128.71;;;14.54;46.49
48156;BME280;35568;48.104;11.782;2023-05-03T08:51:05;96128.25;;;14.82;46.48
48156;BME280;35568;48.104;11.782;2023-05-03T08:53:34;96125.33;;;15.01;45.39
48156;BME280;35568;48.104;11.782;2023-05-03T08:56:05;96127.41;;;15.06;45.43
48156;BME280;35568;48.104;11.782;2023-05-03T08:58:33;96127.25;;;15.59;45.12
48156;BME280;35568;48.104;11.782;2023-05-03T09:01:04;96127.06;;;15.82;44.92
48156;BME280;35568;48.104;11.782;2023-05-03T09:03:30;96126.57;;;15.94;44.13
48156;BME280;35568;48.104;11.782;2023-05-03T09:05:58;96127.38;;;16.82;42.85
48156;BME280;35568;48.104;11.782;2023-05-03T09:08:26;96126.15;;;16.83;42.46
48156;BME280;35568;48.104;11.782;2023-05-03T09:10:53;96125.28;;;17.29;41.48
48156;BME280;35568;48.104;11.782;2023-05-03T09:13:20;96125.73;;;17.32;41.30
48156;BME280;35568;48.104;11.782;2023-05-03T09:15:52;96125.70;;;17.39;40.87
48156;BME280;35568;48.104;11.782;2023-05-03T09:18:19;96116.85;;;18.22;40.46
48156;BME280;35568;48.104;11.782;2023-05-03T09:20:47;96119.83;;;17.58;41.31
48156;BME280;35568;48.104;11.782;2023-05-03T09:23:14;96122.54;;;17.54;40.94
48156;BME280;35568;48.104;11.782;2023-05-03T09:25:43;96125.84;;;17.29;41.58
48156;BME280;35568;48.104;11.782;2023-05-03T09:28:10;96119.96;;;18.08;40.30
48156;BME280;35568;48.104;11.782;2023-05-03T09:30:38;96118.30;;;18.47;40.46
48156;BME280;35568;48.104;11.782;2023-05-03T09:33:05;96116.24;;;18.74;39.40
48156;BME280;35568;48.104;11.782;2023-05-03T09:35:32;96119.37;;;18.68;40.04
48156;BME280;35568;48.104;11.782;2023-05-03T09:37:59;96118.16;;;18.59;38.80
48156;BME280;35568;48.104;11.782;2023-05-03T09:40:27;96116.06;;;18.64;39.56
48156;BME280;35568;48.104;11.782;2023-05-03T09:43:10;96114.80;;;19.51;38.65
48156;BME280;35568;48.104;11.782;2023-05-03T09:45:38;96114.58;;;19.59;38.31
48156;BME280;35568;48.104;11.782;2023-05-03T09:48:05;96111.15;;;19.57;37.05
48156;BME280;35568;48.104;11.782;2023-05-03T09:50:33;96108.27;;;20.10;37.08
48156;BME280;35568;48.104;11.782;2023-05-03T09:53:02;96111.11;;;19.37;38.16
48156;BME280;35568;48.104;11.782;2023-05-03T09:55:31;96105.94;;;19.35;38.00
48156;BME280;35568;48.104;11.782;2023-05-03T09:57:59;96104.56;;;19.52;38.93
48156;BME280;35568;48.104;11.782;2023-05-03T10:00:28;96105.04;;;19.60;37.88
48156;BME280;35568;48.104;11.782;2023-05-03T10:02:56;96098.24;;;19.27;38.44
48156;BME280;35568;48.104;11.782;2023-05-03T10:05:30;96098.82;;;19.34;38.91
48156;BME280;35568;48.104;11.782;2023-05-03T10:08:00;96094.96;;;18.77;39.49
48156;BME280;35568;48.104;11.782;2023-05-03T10:10:31;96095.87;;;18.56;39.70
48156;BME280;35568;48.104;11.782;2023-05-03T10:12:59;96096.13;;;18.13;40.05
48156;BME280;35568;48.104;11.782;2023-05-03T10:15:28;96093.66;;;17.56;41.41
48156;BME280;35568;48.104;11.782;2023-05-03T10:17:57;96093.80;;;17.16;41.79
48156;BME280;35568;48.104;11.782;2023-05-03T10:20:29;96089.03;;;17.41;42.31
48156;BME280;35568;48.104;11.782;2023-05-03T10:23:07;96086.28;;;18.54;41.06
48156;BME280;35568;48.104;11.782;2023-05-03T10:25:35;96085.29;;;18.56;40.16
48156;BME280;35568;48.104;11.782;2023-05-03T10:28:03;96084.33;;;18.39;40.60
48156;BME280;35568;48.104;11.782;2023-05-03T10:30:32;96085.44;;;18.28;40.71
48156;BME280;35568;48.104;11.782;2023-05-03T10:33:03;96084.79;;;18.85;39.83
48156;BME280;35568;48.104;11.782;2023-05-03T10:35:56;96085.24;;;18.77;39.57
48156;BME280;35568;48.104;11.782;2023-05-03T10:38:25;96084.90;;;17.70;40.70
48156;BME280;35568;48.104;11.782;2023-05-03T10:40:53;96087.79;;;17.69;41.77
48156;BME280;35568;48.104;11.782;2023-05-03T10:43:53;96085.90;;;17.66;41.86
48156;BME280;35568;48.104;11.782;2023-05-03T10:46:35;96083.08;;;18.81;41.65
48156;BME280;35568;48.104;11.782;2023-05-03T10:49:20;96085.81;;;19.32;39.25
48156;BME280;35568;48.104;11.782;2023-05-03T10:51:48;96085.54;;;19.10;39.17
48156;BME280;35568;48.104;11.782;2023-05-03T10:54:14;96085.53;;;19.95;38.51
48156;BME280;35568;48.104;11.782;2023-05-03T10:56:51;96080.77;;;19.61;37.92
48156;BME280;35568;48.104;11.782;2023-05-03T10:59:18;96079.58;;;19.72;37.42
48156;BME280;35568;48.104;11.782;2023-05-03T11:01:48;96076.90;;;20.34;37.12
48156;BME280;35568;48.104;11.782;2023-05-03T11:04:37;96073.46;;;20.12;37.34
48156;BME280;35568;48.104;11.782;2023-05-03T11:07:05;96068.11;;;20.66;37.00
48156;BME280;35568;48.104;11.782;2023-05-03T11:09:33;96071.53;;;21.01;36.23
48156;BME280;35568;48.104;11.782;2023-05-03T11:12:05;96077.33;;;21.18;35.38
48156;BME280;35568;48.104;11.782;2023-05-03T11:14:33;96071.30;;;20.39;36.26
48156;BME280;35568;48.104;11.782;2023-05-03T11:17:00;96068.74;;;20.54;36.68
48156;BME280;35568;48.104;11.782;2023-05-03T11:19:28;96070.63;;;20.83;36.58
48156;BME280;35568;48.104;11.782;2023-05-03T11:21:56;96069.11;;;20.55;35.93
48156;BME280;35568;48.104;11.782;2023-05-03T11:24:23;96065.49;;;22.18;33.72
48156;BME280;35568;48.104;11.782;2023-05-03T11:26:51;96058.32;;;22.98;32.61
48156;BME280;35568;48.104;11.782;2023-05-03T11:29:17;96057.56;;;23.29;31.96
48156;BME280;35568;48.104;11.782;2023-05-03T11:31:44;96055.12;;;22.60;32.86
48156;BME280;35568;48.104;11.782;2023-05-03T11:34:12;96058.08;;;21.22;33.63
48156;BME280;35568;48.104;11.782;2023-05-03T11:36:39;96058.85;;;21.68;33.38
48156;BME280;35568;48.104;11.782;2023-05-03T11:39:06;96051.02;;;22.37;32.65
48156;BME280;35568;48.104;11.782;2023-05-03T11:41:34;96047.16;;;23.26;32.27
48156;BME280;35568;48.104;11.782;2023-05-03T11:44:01;96045.49;;;23.76;30.82
48156;BME280;35568;48.104;11.782;2023-05-03T11:46:31;96043.50;;;23.85;30.70
48156;BME280;35568;48.104;11.782;2023-05-03T11:49:00;96046.43;;;24.13;29.42
48156;BME280;35568;48.104;11.782;2023-05-03T11:51:27;96040.63;;;24.58;29.37
48156;BME280;35568;48.104;11.782;2023-05-03T11:53:55;96044.40;;;23.82;30.55
48156;BME280;35568;48.104;11.782;2023-05-03T11:56:22;96050.52;;;24.19;30.15
48156;BME280;35568;48.104;11.782;2023-05-03T11:58:51;96044.18;;;23.25;30.80
48156;BME280;35568;48.104;11.782;2023-05-03T12:01:19;96044.93;;;24.70;29.08
48156;BME280;35568;48.104;11.782;2023-05-03T12:03:46;96041.08;;;24.39;29.23
48156;BME280;35568;48.104;11.782;2023-05-03T12:06:14;96038.70;;;24.71;28.88
48156;BME280;35568;48.104;11.782;2023-05-03T12:08:41;96036.06;;;24.81;28.07
48156;BME280;35568;48.104;11.782;2023-05-03T12:11:08;96033.29;;;24.82;27.80
48156;BME280;35568;48.104;11.782;2023-05-03T12:13:37;96029.87;;;25.00;27.99
48156;BME280;35568;48.104;11.782;2023-05-03T12:16:06;96027.70;;;25.23;27.91
48156;BME280;35568;48.104;11.782;2023-05-03T12:18:50;96027.82;;;25.87;26.95
48156;BME280;35568;48.104;11.782;2023-05-03T12:21:18;96023.80;;;25.19;27.95
48156;BME280;35568;48.104;11.782;2023-05-03T12:23:46;96025.23;;;24.95;27.90
48156;BME280;35568;48.104;11.782;2023-05-03T12:26:13;96020.68;;;24.81;27.25
48156;BME280;35568;48.104;11.782;2023-05-03T12:28:40;96021.30;;;25.22;26.66
48156;BME280;35568;48.104;11.782;2023-05-03T12:31:06;96018.53;;;25.86;26.26
48156;BME280;35568;48.104;11.782;2023-05-03T12:33:33;96023.14;;;26.91;25.52
48156;BME280;35568;48.104;11.782;2023-05-03T12:36:00;96012.39;;;27.03;23.90
48156;BME280;35568;48.104;11.782;2023-05-03T12:38:27;96012.60;;;27.14;24.57
48156;BME280;35568;48.104;11.782;2023-05-03T12:40:53;96017.74;;;26.37;24.62
48156;BME280;35568;48.104;11.782;2023-05-03T12:43:20;96011.48;;;26.86;24.70
48156;BME280;35568;48.104;11.782;2023-05-03T12:45:47;96006.68;;;26.56;24.04
48156;BME280;35568;48.104;11.782;2023-05-03T12:48:14;96006.32;;;26.99;23.22
48156;BME280;35568;48.104;11.782;2023-05-03T12:50:41;96009.08;;;26.24;24.29
48156;BME280;35568;48.104;11.782;2023-05-03T12:53:07;96005.33;;;26.44;24.17
48156;BME280;35568;48.104;11.782;2023-05-03T12:55:34;96003.65;;;26.19;24.86
48156;BME280;35568;48.104;11.782;2023-05-03T12:58:01;96003.02;;;25.35;25.37
48156;BME280;35568;48.104;11.782;2023-05-03T13:00:28;96000.27;;;24.89;25.99
48156;BME280;35568;48.104;11.782;2023-05-03T13:02:55;96001.96;;;24.62;26.18